In Rescue
 
Open Full Screen Window  High Contrast Mode
Wind Gusting 00 knots
13
May 25, 2022 5:55 PM PDT
Weather Information
Wind Direction
  030 °
Wind Speed
  13 kt (15 mph)
Wind Gust
  00 kt (0 mph)
Altimeter
29.80 in
Visibility
10 SM
Temperature
21° C
70° F
Dewpoint
15° C
59° F
Humidity
69%
1hr Rain Fall
00.00 in.
24hr Rain Fall
00.00 in.
Sky Condition
Clear
VFR

METAR KSQL 260055Z AUTO 03013KT 10SM CLR 21/15 A2980 RMK AO2

FAA Disclaimer: The data displayed is for advisory purposes only and is not to be used for flight planning or operations.